Time;durP1;ratioP1;P1;durP2;ratioP2;P2;SDS_P1;SDS_P2;PMS_P1;PMS_P2;Temp;Humidity;BMP_temperature;BMP_pressure;BME280_temperature;BME280_humidity;BME280_pressure;Samples;Min_cycle;Max_cycle;Signal;HPM_P1;HPM_P2
2021/05/26 00:01:59;;;;;;;6.23;2.33;;;22.90;49.20;;;;;;4986292;28;20245;-87
2021/05/26 00:04:25;;;;;;;5.57;3.10;;;22.90;49.20;;;;;;4988098;28;20774;-88
2021/05/26 00:06:51;;;;;;;4.73;3.17;;;22.90;49.20;;;;;;4987608;28;20413;-88
2021/05/26 00:09:17;;;;;;;6.57;2.77;;;22.90;49.20;;;;;;5001876;28;20236;-88
2021/05/26 00:11:43;;;;;;;4.33;2.40;;;22.90;49.20;;;;;;4986827;28;20568;-87
2021/05/26 00:14:09;;;;;;;5.13;2.63;;;22.90;49.10;;;;;;4986141;28;20517;-87
2021/05/26 00:16:37;;;;;;;4.20;2.67;;;22.90;49.20;;;;;;5003162;28;20942;-87
2021/05/26 00:19:03;;;;;;;7.33;3.13;;;23.00;49.20;;;;;;4987724;28;20420;-86
2021/05/26 00:21:30;;;;;;;5.77;2.80;;;22.90;49.10;;;;;;4987291;28;20417;-88
2021/05/26 00:23:56;;;;;;;5.97;2.40;;;22.90;49.10;;;;;;4986729;28;20428;-88
2021/05/26 00:26:22;;;;;;;4.43;2.10;;;22.90;49.10;;;;;;4987323;28;20429;-88
2021/05/26 00:28:47;;;;;;;4.93;2.67;;;22.90;49.10;;;;;;4985492;28;20189;-88
2021/05/26 00:31:13;;;;;;;4.50;2.60;;;22.90;49.10;;;;;;4986769;28;20198;-88
2021/05/26 00:33:39;;;;;;;3.87;2.10;;;22.90;49.10;;;;;;4987387;28;20170;-88
2021/05/26 00:36:05;;;;;;;2.90;2.23;;;22.90;49.20;;;;;;4987424;28;20180;-88
2021/05/26 00:38:31;;;;;;;3.50;2.80;;;22.90;49.20;;;;;;4985432;28;20432;-88
2021/05/26 00:40:57;;;;;;;4.87;2.73;;;22.90;49.10;;;;;;4984809;28;20428;-88
2021/05/26 00:43:22;;;;;;;5.63;2.43;;;22.90;49.10;;;;;;4987137;28;20257;-88
2021/05/26 00:45:49;;;;;;;4.63;2.10;;;22.90;49.10;;;;;;4987768;28;20684;-88
2021/05/26 00:48:14;;;;;;;4.00;2.00;;;22.90;49.10;;;;;;5018470;28;20265;-88
2021/05/26 00:51:26;;;;;;;4.77;2.93;;;22.90;49.10;;;;;;4986821;28;20457;-88
2021/05/26 00:53:52;;;;;;;4.63;2.27;;;22.90;49.00;;;;;;5001600;28;20401;-88
2021/05/26 00:56:18;;;;;;;6.70;2.40;;;22.80;49.10;;;;;;5018182;28;20424;-88
2021/05/26 00:58:44;;;;;;;6.27;2.10;;;22.90;49.20;;;;;;4985936;28;20280;-88
2021/05/26 01:01:10;;;;;;;5.30;2.63;;;22.90;49.20;;;;;;5004578;28;20192;-88
2021/05/26 01:03:36;;;;;;;6.07;2.87;;;22.90;49.20;;;;;;4990114;28;20433;-87
2021/05/26 01:06:02;;;;;;;4.73;2.40;;;22.90;49.30;;;;;;4989543;28;20174;-88
2021/05/26 01:08:27;;;;;;;3.00;1.93;;;22.90;49.30;;;;;;4989841;28;20682;-87
2021/05/26 01:10:53;;;;;;;3.80;1.80;;;22.90;49.20;;;;;;4990592;28;20453;-87
2021/05/26 01:13:22;;;;;;;3.87;2.23;;;22.90;49.20;;;;;;5021246;28;20177;-86
2021/05/26 01:15:48;;;;;;;2.93;1.97;;;22.80;49.20;;;;;;4991185;28;20180;-86
2021/05/26 01:18:17;;;;;;;3.87;2.90;;;22.90;49.20;;;;;;4991202;28;20469;-86
2021/05/26 01:20:43;;;;;;;5.53;2.67;;;22.90;49.20;;;;;;5022302;28;20178;-86
2021/05/26 01:23:08;;;;;;;5.23;2.50;;;22.80;49.20;;;;;;5022458;28;20433;-86
2021/05/26 01:25:34;;;;;;;6.13;2.67;;;22.90;49.20;;;;;;4989879;28;20182;-86
2021/05/26 01:28:01;;;;;;;4.63;2.00;;;22.80;49.10;;;;;;5005899;28;20181;-86
2021/05/26 01:33:48;;;;;;;4.57;2.30;;;22.90;49.10;;;;;;4990921;28;20376;-86
2021/05/26 01:36:15;;;;;;;5.10;2.00;;;22.80;49.20;;;;;;4990021;28;20448;-85
2021/05/26 01:38:41;;;;;;;4.10;1.97;;;22.80;49.20;;;;;;5022209;28;20184;-86
2021/05/26 01:41:07;;;;;;;5.93;2.30;;;22.80;49.40;;;;;;4989219;28;20421;-85
2021/05/26 01:43:34;;;;;;;4.50;2.50;;;22.80;49.20;;;;;;4990693;28;20181;-86
2021/05/26 01:46:01;;;;;;;3.07;1.90;;;22.80;49.20;;;;;;4990381;28;20178;-86
2021/05/26 01:48:27;;;;;;;3.03;2.23;;;22.80;49.80;;;;;;4990286;28;20449;-85
2021/05/26 01:50:52;;;;;;;2.83;1.73;;;22.80;49.40;;;;;;4989580;28;20461;-86
2021/05/26 01:53:20;;;;;;;4.83;2.30;;;22.80;49.30;;;;;;5021335;28;20188;-86
2021/05/26 01:55:46;;;;;;;3.03;1.80;;;22.80;49.20;;;;;;4990692;28;20236;-85
2021/05/26 01:58:15;;;;;;;5.40;2.40;;;22.80;49.30;;;;;;4990209;28;20969;-86
2021/05/26 02:00:42;;;;;;;3.93;2.30;;;22.80;49.40;;;;;;4988790;28;20205;-85
2021/05/26 02:03:08;;;;;;;2.73;1.70;;;22.80;49.30;;;;;;5005540;28;20488;-86
2021/05/26 02:05:35;;;;;;;3.60;1.90;;;22.80;49.30;;;;;;4990317;28;20413;-86
2021/05/26 02:08:01;;;;;;;3.80;2.03;;;22.80;49.30;;;;;;4988466;28;20274;-86
2021/05/26 02:13:11;;;;;;;4.27;2.10;;;22.80;49.30;;;;;;4988472;28;20200;-86
2021/05/26 02:15:37;;;;;;;4.43;1.90;;;22.80;49.30;;;;;;4988652;28;20943;-86
2021/05/26 02:18:03;;;;;;;4.57;1.97;;;22.80;49.30;;;;;;5022475;28;20182;-86
2021/05/26 02:20:39;;;;;;;4.33;1.73;;;22.80;49.30;;;;;;5021156;28;20640;-86
2021/05/26 02:23:09;;;;;;;5.77;2.33;;;22.80;49.40;;;;;;4988571;28;20816;-86
2021/05/26 02:25:44;;;;;;;2.77;1.77;;;22.80;49.40;;;;;;4988938;28;20448;-86
2021/05/26 02:28:10;;;;;;;2.07;1.40;;;22.80;49.60;;;;;;4989473;28;20433;-86
2021/05/26 02:30:36;;;;;;;3.33;2.07;;;23.00;49.70;;;;;;4989726;28;20453;-86
2021/05/26 02:33:01;;;;;;;3.43;1.80;;;22.80;49.50;;;;;;4989422;28;20178;-86
2021/05/26 02:35:29;;;;;;;3.87;1.80;;;22.80;49.40;;;;;;4988210;28;20205;-86
2021/05/26 02:37:55;;;;;;;3.90;2.00;;;22.80;49.50;;;;;;4989582;28;20170;-86
2021/05/26 02:40:20;;;;;;;2.97;2.23;;;22.80;49.60;;;;;;4987969;28;20444;-85
2021/05/26 02:42:46;;;;;;;3.50;1.80;;;22.80;49.50;;;;;;4987120;28;20181;-85
2021/05/26 02:45:13;;;;;;;2.67;1.80;;;22.80;49.50;;;;;;5002244;28;20255;-86
2021/05/26 02:47:38;;;;;;;3.20;1.80;;;22.80;49.50;;;;;;5024293;28;20189;-86
2021/05/26 02:50:05;;;;;;;3.50;1.80;;;22.80;49.50;;;;;;5040354;28;20443;-86
2021/05/26 02:52:30;;;;;;;4.23;1.70;;;22.80;49.50;;;;;;5006507;28;20272;-86
2021/05/26 02:54:56;;;;;;;2.70;1.73;;;22.70;49.60;;;;;;5006918;28;20408;-86
2021/05/26 02:57:22;;;;;;;3.00;1.80;;;22.70;49.50;;;;;;5005802;28;20235;-85
2021/05/26 02:59:48;;;;;;;1.80;1.43;;;22.80;49.60;;;;;;5005497;28;20181;-85
2021/05/26 03:02:13;;;;;;;3.10;1.90;;;22.70;49.50;;;;;;5006346;28;20177;-85
2021/05/26 03:04:45;;;;;;;2.57;1.47;;;22.70;49.40;;;;;;5007024;28;20173;-85
2021/05/26 03:07:11;;;;;;;2.80;1.70;;;22.80;49.50;;;;;;5007433;28;20174;-85
2021/05/26 03:10:31;;;;;;;3.10;1.80;;;22.70;49.50;;;;;;5006814;28;20404;-85
2021/05/26 03:12:57;;;;;;;4.13;1.60;;;22.80;49.40;;;;;;5006741;28;20193;-86
2021/05/26 03:15:23;;;;;;;2.43;1.70;;;22.70;49.60;;;;;;5022422;28;20412;-86
2021/05/26 03:17:51;;;;;;;2.47;1.60;;;22.70;49.50;;;;;;5006071;28;20172;-86
2021/05/26 03:20:18;;;;;;;2.50;1.40;;;22.70;49.50;;;;;;5006143;28;20169;-86
2021/05/26 03:22:44;;;;;;;1.80;1.30;;;22.70;49.40;;;;;;5006341;28;20411;-84
2021/05/26 03:25:12;;;;;;;2.87;1.70;;;22.70;49.40;;;;;;5038337;28;20416;-85
2021/05/26 03:27:39;;;;;;;8.03;2.13;;;22.80;49.50;;;;;;5005097;28;20460;-85
2021/05/26 03:30:12;;;;;;;2.77;1.50;;;22.70;49.50;;;;;;5005329;28;20421;-84
2021/05/26 03:32:39;;;;;;;2.37;1.60;;;22.70;49.40;;;;;;5037864;28;20405;-86
2021/05/26 03:38:48;;;;;;;3.37;1.63;;;22.80;49.40;;;;;;5013601;28;20936;-86
2021/05/26 03:41:14;;;;;;;3.00;1.83;;;22.70;49.60;;;;;;5004647;28;20514;-85
2021/05/26 03:43:39;;;;;;;2.67;1.57;;;22.70;49.60;;;;;;5037932;28;20181;-85
2021/05/26 03:46:05;;;;;;;2.67;1.53;;;22.70;49.60;;;;;;5005700;28;20196;-86
2021/05/26 03:48:31;;;;;;;2.53;1.50;;;22.70;49.60;;;;;;5038270;28;20192;-86
2021/05/26 03:50:57;;;;;;;2.53;1.37;;;22.70;49.50;;;;;;5006741;28;20201;-85
2021/05/26 03:53:25;;;;;;;3.50;1.70;;;22.70;49.50;;;;;;5006709;28;20252;-86
2021/05/26 03:55:52;;;;;;;1.90;1.20;;;22.70;49.50;;;;;;5005742;28;20197;-86
2021/05/26 03:58:18;;;;;;;3.50;1.73;;;22.70;49.60;;;;;;5021266;28;20455;-86
2021/05/26 04:00:44;;;;;;;1.67;1.33;;;22.70;49.60;;;;;;5037809;28;20559;-86
2021/05/26 04:03:09;;;;;;;1.93;1.17;;;22.70;49.50;;;;;;5006443;28;20173;-86
2021/05/26 04:05:35;;;;;;;2.30;1.40;;;22.70;49.60;;;;;;5037768;28;20262;-86
2021/05/26 04:08:01;;;;;;;1.97;1.30;;;22.70;49.60;;;;;;5006300;28;20214;-86
2021/05/26 04:10:27;;;;;;;2.03;1.27;;;22.70;49.60;;;;;;5005757;28;20220;-86
2021/05/26 04:12:52;;;;;;;2.60;1.43;;;22.70;49.60;;;;;;5004988;28;20185;-86
2021/05/26 04:15:18;;;;;;;2.80;1.57;;;22.70;49.70;;;;;;5004678;28;20231;-86
2021/05/26 04:17:44;;;;;;;2.13;1.37;;;22.70;49.70;;;;;;5037464;28;20200;-86
2021/05/26 04:20:10;;;;;;;3.23;1.50;;;22.70;49.60;;;;;;5005478;28;20177;-86
2021/05/26 04:22:37;;;;;;;2.17;1.27;;;22.70;49.60;;;;;;5004532;28;20177;-86
2021/05/26 04:25:04;;;;;;;2.37;1.30;;;22.70;49.70;;;;;;5004605;28;20417;-86
2021/05/26 04:27:30;;;;;;;1.97;1.13;;;22.60;49.50;;;;;;5005033;28;20412;-86
2021/05/26 04:29:56;;;;;;;2.60;1.70;;;22.70;49.70;;;;;;5020632;28;20455;-86
2021/05/26 04:32:22;;;;;;;1.90;1.50;;;22.70;49.60;;;;;;5004578;28;20173;-86
2021/05/26 04:34:48;;;;;;;2.73;1.40;;;22.70;49.60;;;;;;5006341;28;20529;-86
2021/05/26 04:40:35;;;;;;;2.83;1.27;;;22.70;49.50;;;;;;5009534;28;20168;-86
2021/05/26 04:43:01;;;;;;;2.03;1.20;;;22.70;49.60;;;;;;5008663;28;20423;-85
2021/05/26 04:45:27;;;;;;;4.13;2.27;;;22.70;49.60;;;;;;5041113;28;20185;-86
2021/05/26 04:47:53;;;;;;;1.90;1.00;;;22.70;49.70;;;;;;5009591;28;20199;-86
2021/05/26 04:50:20;;;;;;;1.70;1.20;;;22.70;49.50;;;;;;5008311;28;20308;-86
2021/05/26 04:52:45;;;;;;;1.47;1.00;;;22.70;49.40;;;;;;5009125;28;20172;-86
2021/05/26 04:55:11;;;;;;;1.87;1.27;;;22.70;49.50;;;;;;5025173;28;20416;-85
2021/05/26 04:57:37;;;;;;;1.50;1.10;;;22.70;49.50;;;;;;5009407;28;20192;-85
2021/05/26 05:00:05;;;;;;;2.17;1.30;;;22.80;49.50;;;;;;5038466;28;20446;-85
2021/05/26 05:02:31;;;;;;;2.47;1.30;;;22.80;49.50;;;;;;5008605;28;20233;-85
2021/05/26 05:04:56;;;;;;;1.90;1.20;;;22.80;49.50;;;;;;5007742;28;20424;-85
2021/05/26 05:07:22;;;;;;;3.50;1.83;;;22.80;49.50;;;;;;5008917;28;20252;-85
2021/05/26 05:09:48;;;;;;;1.53;1.20;;;22.80;49.50;;;;;;5040005;28;20188;-85
2021/05/26 05:12:14;;;;;;;1.20;1.00;;;22.80;49.50;;;;;;5007429;28;20209;-85
2021/05/26 05:14:39;;;;;;;1.70;1.20;;;22.80;49.50;;;;;;5006879;28;20205;-85
2021/05/26 05:17:05;;;;;;;1.57;1.20;;;22.80;49.50;;;;;;5007006;28;20180;-85
2021/05/26 05:19:31;;;;;;;3.13;1.30;;;22.80;49.50;;;;;;5007109;28;20199;-85
2021/05/26 05:21:57;;;;;;;2.03;1.20;;;22.80;49.40;;;;;;5008235;28;20955;-86
2021/05/26 05:24:22;;;;;;;2.50;1.37;;;22.80;49.40;;;;;;5010921;28;20177;-86
2021/05/26 05:26:48;;;;;;;2.03;1.30;;;22.90;49.50;;;;;;5009974;28;20213;-85
2021/05/26 05:29:14;;;;;;;3.23;1.47;;;22.80;49.40;;;;;;5007477;28;20177;-84
2021/05/26 05:31:39;;;;;;;1.93;1.10;;;22.80;49.40;;;;;;5007598;28;20209;-85
2021/05/26 05:34:05;;;;;;;1.33;1.00;;;22.80;49.40;;;;;;4998066;28;20240;-85
2021/05/26 05:36:31;;;;;;;1.20;0.97;;;22.80;49.40;;;;;;5018458;28;20165;-85
2021/05/26 05:38:57;;;;;;;3.13;1.50;;;22.80;49.40;;;;;;5007225;28;20177;-85
2021/05/26 05:41:22;;;;;;;1.73;1.10;;;22.80;49.40;;;;;;5008130;28;20252;-85
2021/05/26 05:43:48;;;;;;;1.37;1.07;;;22.80;49.40;;;;;;5008869;28;20207;-85
2021/05/26 05:46:14;;;;;;;1.60;1.20;;;22.80;49.40;;;;;;5007026;28;20180;-85
2021/05/26 05:48:39;;;;;;;2.07;1.10;;;22.90;49.40;;;;;;5023086;28;20647;-85
2021/05/26 05:51:05;;;;;;;2.10;1.33;;;22.90;49.40;;;;;;5023214;28;20200;-85
2021/05/26 05:53:32;;;;;;;1.87;1.20;;;22.90;49.40;;;;;;5006536;28;20173;-85
2021/05/26 05:56:01;;;;;;;2.97;1.37;;;22.90;49.40;;;;;;5010038;28;20180;-86
2021/05/26 05:58:27;;;;;;;2.10;1.17;;;22.90;49.50;;;;;;5010117;28;20439;-86
2021/05/26 06:00:53;;;;;;;3.93;1.30;;;22.90;49.40;;;;;;5043133;28;20416;-86
2021/05/26 06:03:19;;;;;;;1.50;1.00;;;22.90;49.40;;;;;;5010192;28;20424;-86
2021/05/26 06:05:45;;;;;;;1.20;0.90;;;22.90;49.40;;;;;;5042436;28;20204;-86
2021/05/26 06:08:11;;;;;;;1.80;1.13;;;22.90;49.40;;;;;;5009518;28;20424;-86
2021/05/26 06:10:36;;;;;;;2.57;1.37;;;22.90;49.40;;;;;;5025625;28;20205;-86
2021/05/26 06:13:06;;;;;;;2.17;1.10;;;22.90;49.40;;;;;;5010162;28;20174;-86
2021/05/26 06:15:32;;;;;;;2.10;1.20;;;22.90;49.40;;;;;;5010564;28;20164;-87
2021/05/26 06:17:58;;;;;;;3.33;1.53;;;22.90;49.40;;;;;;5041615;28;20448;-86
2021/05/26 06:20:24;;;;;;;1.63;1.10;;;22.90;49.40;;;;;;5008777;28;20190;-88
2021/05/26 06:22:50;;;;;;;1.67;1.20;;;22.90;49.30;;;;;;5008922;28;20420;-87
2021/05/26 06:25:15;;;;;;;2.03;1.10;;;22.90;49.40;;;;;;5007820;28;20185;-85
2021/05/26 06:27:41;;;;;;;2.13;1.47;;;22.90;49.30;;;;;;5042315;28;20308;-87
2021/05/26 06:30:08;;;;;;;2.67;1.37;;;22.90;49.30;;;;;;5010295;28;20627;-87
2021/05/26 06:32:34;;;;;;;1.23;1.00;;;22.90;49.30;;;;;;5008425;28;20409;-87
2021/05/26 06:35:00;;;;;;;1.30;0.90;;;22.90;49.30;;;;;;5010568;28;20420;-86
2021/05/26 06:37:26;;;;;;;1.13;0.90;;;22.90;49.30;;;;;;5009190;28;20177;-87
2021/05/26 06:39:52;;;;;;;2.27;1.13;;;22.90;49.30;;;;;;5041782;28;20424;-87
2021/05/26 06:42:18;;;;;;;1.63;1.30;;;22.90;49.30;;;;;;5042540;28;20647;-86
2021/05/26 06:44:44;;;;;;;1.50;1.10;;;23.00;49.40;;;;;;5008571;28;20181;-87
2021/05/26 06:47:10;;;;;;;2.70;1.00;;;23.00;50.00;;;;;;5007109;28;20463;-86
2021/05/26 06:49:36;;;;;;;1.40;1.07;;;22.90;49.30;;;;;;5041071;28;20188;-86
2021/05/26 06:52:02;;;;;;;1.77;1.00;;;23.00;49.40;;;;;;5010000;28;20950;-84
2021/05/26 06:54:28;;;;;;;1.90;1.10;;;22.90;49.30;;;;;;5038415;28;20181;-85
2021/05/26 06:56:53;;;;;;;1.10;0.90;;;23.00;49.40;;;;;;5006680;28;20508;-85
2021/05/26 06:59:19;;;;;;;1.67;1.57;;;22.90;49.30;;;;;;5040567;28;20227;-86
2021/05/26 07:01:45;;;;;;;1.43;1.20;;;23.00;49.40;;;;;;5010092;28;20174;-86
2021/05/26 07:04:12;;;;;;;1.63;1.27;;;22.90;49.30;;;;;;5040723;28;20184;-87
2021/05/26 07:06:39;;;;;;;1.80;1.00;;;22.90;49.30;;;;;;5008195;28;20181;-87
2021/05/26 07:09:04;;;;;;;1.20;0.93;;;22.90;49.30;;;;;;5009215;28;20424;-86
2021/05/26 07:11:30;;;;;;;1.07;0.80;;;23.00;49.40;;;;;;5009408;28;20468;-86
2021/05/26 07:13:59;;;;;;;1.80;1.20;;;23.00;49.40;;;;;;5042115;28;20180;-87
2021/05/26 07:16:31;;;;;;;1.30;0.90;;;22.90;49.30;;;;;;5009567;28;20196;-87
2021/05/26 07:18:59;;;;;;;1.63;0.70;;;22.90;49.30;;;;;;5024867;28;20474;-87
2021/05/26 07:21:27;;;;;;;2.33;1.03;;;22.90;49.30;;;;;;5041316;28;20456;-86
2021/05/26 07:23:55;;;;;;;1.33;1.03;;;23.00;49.30;;;;;;5007998;28;20442;-85
2021/05/26 07:26:22;;;;;;;1.20;0.80;;;22.90;49.20;;;;;;5039165;28;20436;-87
2021/05/26 07:28:48;;;;;;;1.30;0.90;;;22.90;49.10;;;;;;5022620;28;20451;-84
2021/05/26 07:31:14;;;;;;;1.67;1.00;;;22.90;49.10;;;;;;5007561;28;20464;-85
2021/05/26 07:33:46;;;;;;;1.30;0.80;;;22.90;49.10;;;;;;5009253;28;20423;-84
2021/05/26 07:36:12;;;;;;;2.00;1.23;;;23.00;49.10;;;;;;5008725;28;20181;-85
2021/05/26 07:38:39;;;;;;;1.40;0.97;;;22.90;49.00;;;;;;5008202;28;20407;-85
2021/05/26 07:41:07;;;;;;;1.30;1.07;;;22.90;49.10;;;;;;5008127;28;20420;-83
2021/05/26 07:43:33;;;;;;;0.90;0.73;;;22.90;49.20;;;;;;5007107;28;20455;-85
2021/05/26 07:46:02;;;;;;;1.50;1.00;;;22.90;49.20;;;;;;5039570;28;20427;-84
2021/05/26 07:48:27;;;;;;;1.80;1.43;;;22.90;49.10;;;;;;5040179;28;20416;-85
2021/05/26 07:50:53;;;;;;;1.97;1.10;;;22.90;49.10;;;;;;5007854;28;20567;-84
2021/05/26 07:53:19;;;;;;;1.40;1.10;;;22.90;49.00;;;;;;5040517;28;20211;-84
2021/05/26 07:59:07;;;;;;;1.40;0.90;;;23.00;49.00;;;;;;5008599;28;20187;-86
2021/05/26 08:01:33;;;;;;;1.20;1.07;;;22.90;49.10;;;;;;5009291;28;20420;-87
2021/05/26 08:04:13;;;;;;;1.70;1.00;;;22.90;49.10;;;;;;5008039;28;20446;-87
2021/05/26 08:06:42;;;;;;;1.00;0.80;;;23.00;49.20;;;;;;4991201;28;20499;-85
2021/05/26 08:09:07;;;;;;;1.87;1.10;;;22.90;49.20;;;;;;5006770;28;20424;-87
2021/05/26 08:11:33;;;;;;;1.17;0.90;;;23.00;49.20;;;;;;5025274;28;20463;-85
2021/05/26 08:13:59;;;;;;;2.50;1.00;;;23.00;49.30;;;;;;5007435;28;20184;-85
2021/05/26 08:16:25;;;;;;;3.63;1.60;;;23.00;49.20;;;;;;5007165;28;20269;-85
2021/05/26 08:18:52;;;;;;;4.50;1.87;;;23.00;49.30;;;;;;5008163;28;20185;-83
2021/05/26 08:21:21;;;;;;;1.80;1.00;;;23.00;49.30;;;;;;5005996;28;20487;-83
2021/05/26 08:23:47;;;;;;;3.07;1.20;;;23.00;49.20;;;;;;5006971;28;20467;-84
2021/05/26 08:26:16;;;;;;;1.27;0.93;;;23.00;49.30;;;;;;5006228;28;20435;-86
2021/05/26 08:28:43;;;;;;;3.30;1.10;;;23.00;49.30;;;;;;5006396;28;20181;-84
2021/05/26 08:31:10;;;;;;;1.60;1.10;;;23.00;49.30;;;;;;5038998;28;20464;-86
2021/05/26 08:33:40;;;;;;;2.13;0.90;;;23.00;49.30;;;;;;5007171;28;20436;-86
2021/05/26 08:36:09;;;;;;;2.73;1.13;;;23.00;49.30;;;;;;5007234;28;20427;-85
2021/05/26 08:38:39;;;;;;;2.07;1.27;;;23.00;49.40;;;;;;5023466;28;20424;-86
2021/05/26 08:41:08;;;;;;;1.70;1.03;;;23.00;49.30;;;;;;5007623;28;20412;-87
2021/05/26 08:43:36;;;;;;;2.20;1.03;;;23.00;49.30;;;;;;5021849;28;20470;-87
2021/05/26 08:46:06;;;;;;;1.63;0.80;;;23.00;49.80;;;;;;5004585;28;20509;-88
2021/05/26 08:48:33;;;;;;;1.70;1.17;;;23.00;49.30;;;;;;5005588;28;20428;-87
2021/05/26 08:51:03;;;;;;;2.40;1.53;;;23.00;49.40;;;;;;5006794;28;20513;-86
2021/05/26 08:53:29;;;;;;;3.93;1.43;;;23.00;49.30;;;;;;5005635;28;20436;-89
2021/05/26 08:55:58;;;;;;;7.23;1.37;;;23.00;49.30;;;;;;5023673;28;20431;-83
2021/05/26 08:58:25;;;;;;;1.47;1.10;;;23.00;49.20;;;;;;5038209;28;20416;-86
2021/05/26 09:00:52;;;;;;;7.03;1.40;;;23.00;49.30;;;;;;5006534;28;20404;-86
2021/05/26 09:03:18;;;;;;;2.43;1.13;;;22.90;49.10;;;;;;5004769;28;20508;-83
2021/05/26 09:05:54;;;;;;;2.30;1.10;;;23.00;49.10;;;;;;5004992;28;20894;-83
2021/05/26 09:08:21;;;;;;;3.13;1.20;;;23.00;49.10;;;;;;5006022;28;20217;-84
2021/05/26 09:10:54;;;;;;;4.10;1.20;;;23.00;49.10;;;;;;5007181;28;20459;-83
2021/05/26 09:13:30;;;;;;;1.97;1.20;;;23.00;49.10;;;;;;5038824;28;20408;-83
2021/05/26 09:15:56;;;;;;;3.93;1.20;;;23.00;49.10;;;;;;5005325;28;20488;-83
2021/05/26 09:18:22;;;;;;;2.37;1.03;;;23.00;49.20;;;;;;5004436;28;20511;-83
2021/05/26 09:20:48;;;;;;;1.43;1.03;;;22.90;49.10;;;;;;5005297;28;20813;-83
2021/05/26 09:23:29;;;;;;;1.87;1.10;;;23.00;49.20;;;;;;5040275;28;20208;-83
2021/05/26 09:26:37;;;;;;;4.40;1.10;;;23.00;49.30;;;;;;5010528;28;20225;-86
2021/05/26 09:29:07;;;;;;;2.53;1.20;;;23.00;49.30;;;;;;4996110;28;20435;-86
2021/05/26 09:32:20;;;;;;;;;;;;;;;;;;;;;
2021/05/26 09:34:55;;;;;;;1.83;1.00;;;22.90;49.20;;;;;;5008935;28;20440;-83
2021/05/26 09:37:24;;;;;;;1.67;1.00;;;23.00;49.40;;;;;;5009183;28;20601;-83
2021/05/26 09:39:53;;;;;;;1.83;1.10;;;22.90;49.30;;;;;;5040647;28;20540;-83
2021/05/26 09:42:35;;;;;;;1.67;1.00;;;23.00;49.40;;;;;;5008151;28;20446;-83
2021/05/26 09:45:06;;;;;;;1.97;0.90;;;23.00;49.40;;;;;;5009088;28;20419;-84
2021/05/26 09:58:50;;;;;;;2.00;1.13;;;22.90;49.30;;;;;;4949643;29;20408;-83
2021/05/26 10:01:18;;;;;;;1.93;1.20;;;22.90;49.40;;;;;;4950107;29;20453;-84
2021/05/26 10:03:44;;;;;;;1.90;1.03;;;22.90;49.50;;;;;;4949631;29;20419;-83
2021/05/26 10:06:13;;;;;;;1.93;1.20;;;22.90;49.50;;;;;;4949048;29;20450;-84
2021/05/26 10:08:46;;;;;;;2.33;1.10;;;22.90;49.40;;;;;;4933576;29;20199;-83
2021/05/26 10:11:17;;;;;;;1.67;0.97;;;22.90;49.40;;;;;;4934584;29;20463;-84
2021/05/26 10:14:19;;;;;;;1.70;1.10;;;23.00;49.50;;;;;;4935096;29;20452;-84
2021/05/26 10:16:55;;;;;;;1.30;1.07;;;23.00;49.40;;;;;;4934280;29;20419;-83
2021/05/26 10:19:23;;;;;;;2.80;1.50;;;23.00;49.50;;;;;;4932687;29;20415;-82
2021/05/26 10:21:50;;;;;;;2.30;1.00;;;22.90;49.40;;;;;;4932381;29;20454;-83
2021/05/26 10:24:27;;;;;;;1.57;1.00;;;23.00;49.50;;;;;;4931877;29;20427;-82
2021/05/26 10:26:55;;;;;;;2.97;1.20;;;23.00;49.40;;;;;;4954763;28;20776;-85
2021/05/26 10:29:31;;;;;;;3.10;1.03;;;23.00;49.40;;;;;;5041436;28;20432;-86
2021/05/26 10:32:03;;;;;;;1.67;0.80;;;23.00;49.40;;;;;;5009307;28;20454;-86
2021/05/26 10:34:47;;;;;;;2.17;1.00;;;23.00;49.40;;;;;;5008909;28;20768;-84
2021/05/26 10:37:42;;;;;;;1.80;1.10;;;23.00;49.40;;;;;;5008110;28;20412;-84
2021/05/26 10:40:30;;;;;;;1.77;1.10;;;23.00;49.40;;;;;;5005774;28;20910;-84
2021/05/26 10:43:18;;;;;;;1.93;0.80;;;23.00;49.50;;;;;;5008454;28;20421;-82
2021/05/26 10:45:45;;;;;;;7.27;1.30;;;23.00;49.50;;;;;;5006656;28;20416;-84
2021/05/26 10:48:11;;;;;;;1.43;1.10;;;23.00;49.70;;;;;;5007130;28;20555;-83
2021/05/26 10:50:57;;;;;;;2.83;1.00;;;23.00;49.70;;;;;;5006300;28;20459;-84
2021/05/26 10:53:23;;;;;;;3.27;1.00;;;23.00;49.60;;;;;;5008694;28;20576;-87
2021/05/26 10:55:51;;;;;;;1.30;1.07;;;23.00;49.60;;;;;;5008180;28;20427;-86
2021/05/26 10:58:30;;;;;;;1.70;1.20;;;23.00;49.50;;;;;;5041757;28;20425;-85
2021/05/26 11:00:56;;;;;;;2.13;1.10;;;23.00;50.10;;;;;;5040862;28;20451;-85
2021/05/26 11:03:24;;;;;;;2.60;1.30;;;23.00;49.50;;;;;;5007384;28;20424;-82
2021/05/26 11:06:16;;;;;;;1.90;1.10;;;23.00;49.50;;;;;;5008215;28;20181;-85
2021/05/26 11:08:53;;;;;;;1.33;1.00;;;23.00;49.50;;;;;;5006890;28;20458;-85
2021/05/26 11:11:23;;;;;;;2.23;1.20;;;23.00;49.60;;;;;;5008086;28;20456;-87
2021/05/26 11:17:44;;;;;;;3.17;1.70;;;23.00;49.50;;;;;;4966863;29;20464;-85
2021/05/26 11:23:41;;;;;;;4.53;1.70;;;23.00;49.50;;;;;;5020516;28;20846;-86
2021/05/26 11:26:06;;;;;;;3.20;1.60;;;23.00;49.50;;;;;;5009090;28;20449;-86
2021/05/26 11:28:34;;;;;;;4.20;1.70;;;23.00;49.60;;;;;;5008617;28;20408;-85
2021/05/26 11:31:04;;;;;;;4.03;1.50;;;23.00;49.50;;;;;;5025207;28;20200;-85
2021/05/26 11:33:32;;;;;;;5.37;2.03;;;23.00;49.50;;;;;;5006187;28;20427;-84
2021/05/26 11:36:03;;;;;;;8.17;2.30;;;23.00;49.50;;;;;;5023589;28;20447;-84
2021/05/26 11:38:29;;;;;;;3.73;1.63;;;23.00;49.50;;;;;;5007125;28;20490;-85
2021/05/26 11:40:55;;;;;;;3.50;2.30;;;23.00;49.50;;;;;;5008316;28;20428;-85
2021/05/26 11:43:23;;;;;;;4.37;1.80;;;23.00;49.50;;;;;;5006512;28;20180;-86
2021/05/26 11:46:10;;;;;;;6.40;1.87;;;23.00;49.50;;;;;;5005569;28;20427;-84
2021/05/26 11:48:44;;;;;;;4.60;2.07;;;23.00;49.50;;;;;;5008820;28;20750;-84
2021/05/26 11:51:25;;;;;;;3.30;1.90;;;23.00;49.50;;;;;;5008085;28;20483;-86
2021/05/26 11:54:20;;;;;;;2.77;2.00;;;23.00;49.50;;;;;;5008377;28;20404;-86
2021/05/26 11:56:56;;;;;;;6.80;2.77;;;23.00;49.50;;;;;;5008506;28;20416;-85
2021/05/26 11:59:26;;;;;;;4.40;1.87;;;23.00;49.60;;;;;;5040867;28;20404;-87
2021/05/26 12:01:53;;;;;;;7.00;3.27;;;23.00;49.60;;;;;;5006506;28;20416;-87
2021/05/26 12:04:21;;;;;;;4.60;2.43;;;23.00;49.60;;;;;;5039055;28;20416;-86
2021/05/26 12:06:48;;;;;;;3.87;2.37;;;23.00;49.60;;;;;;5007154;28;20435;-84
2021/05/26 12:20:20;;;;;;;5.27;2.27;;;23.00;49.70;;;;;;4970449;28;20466;-80
2021/05/26 12:22:49;;;;;;;5.70;1.90;;;23.00;49.60;;;;;;4972733;29;20485;-79
2021/05/26 12:25:21;;;;;;;7.70;2.97;;;22.90;49.50;;;;;;4974566;28;20424;-79
2021/05/26 12:27:49;;;;;;;4.13;2.20;;;23.00;49.70;;;;;;4973800;29;20421;-79
2021/05/26 12:30:26;;;;;;;6.07;2.30;;;23.00;49.60;;;;;;4973836;29;20506;-79
2021/05/26 12:33:26;;;;;;;5.47;2.37;;;23.10;49.70;;;;;;4974243;28;20418;-79
2021/05/26 12:36:07;;;;;;;7.93;2.23;;;23.00;49.60;;;;;;4974355;28;20426;-79
2021/05/26 12:38:43;;;;;;;5.80;2.60;;;23.00;49.70;;;;;;4975678;29;20437;-80
2021/05/26 12:41:26;;;;;;;3.83;2.07;;;23.00;49.70;;;;;;4974771;29;20519;-80
2021/05/26 12:43:57;;;;;;;6.50;2.33;;;23.00;49.60;;;;;;4974213;28;20414;-80
2021/05/26 12:46:45;;;;;;;4.70;2.20;;;23.00;49.70;;;;;;4974171;29;20433;-80
2021/05/26 12:52:09;;;;;;;6.30;2.50;;;23.00;49.70;;;;;;4974689;29;20805;-81
2021/05/26 12:54:54;;;;;;;5.63;2.70;;;23.00;49.70;;;;;;4975608;28;20406;-80
2021/05/26 12:57:43;;;;;;;;;;;;;;;;;;;;;
2021/05/26 13:03:44;;;;;;;5.80;2.20;;;23.00;49.70;;;;;;4975452;28;20465;-80
2021/05/26 13:06:22;;;;;;;5.80;2.20;;;23.00;49.80;;;;;;4978403;28;20494;-80
2021/05/26 13:08:59;;;;;;;4.87;2.10;;;23.00;49.70;;;;;;4977996;29;20858;-80
2021/05/26 13:11:41;;;;;;;5.17;2.10;;;23.00;49.70;;;;;;4978928;28;20468;-80
2021/05/26 13:14:10;;;;;;;4.20;2.23;;;23.00;49.70;;;;;;4978652;28;20398;-80
2021/05/26 13:16:48;;;;;;;3.77;1.87;;;23.00;49.70;;;;;;4978898;28;20414;-80
2021/05/26 13:19:40;;;;;;;5.63;2.20;;;23.00;49.70;;;;;;4978483;28;20449;-80
2021/05/26 13:22:05;;;;;;;6.93;2.93;;;23.00;49.70;;;;;;4978786;28;20398;-80
2021/05/26 13:24:31;;;;;;;4.53;2.77;;;23.00;49.70;;;;;;4993932;28;20445;-80
2021/05/26 13:26:57;;;;;;;4.57;2.63;;;23.00;49.70;;;;;;4978541;29;20518;-80
2021/05/26 13:29:28;;;;;;;7.07;3.40;;;23.00;49.70;;;;;;4978728;28;20410;-80
2021/05/26 13:31:56;;;;;;;6.10;2.80;;;23.00;49.70;;;;;;4977244;28;20209;-80
2021/05/26 13:34:25;;;;;;;6.30;2.80;;;23.00;49.70;;;;;;4977973;28;20847;-80
2021/05/26 13:36:54;;;;;;;6.67;3.20;;;23.00;49.70;;;;;;4977287;28;20429;-80
2021/05/26 13:39:26;;;;;;;5.90;3.33;;;23.00;49.70;;;;;;4993433;28;20441;-80
2021/05/26 13:41:57;;;;;;;6.73;3.57;;;23.00;49.70;;;;;;4978967;28;20487;-80
2021/05/26 13:44:23;;;;;;;7.00;3.73;;;23.00;49.70;;;;;;4978102;28;20422;-80
2021/05/26 13:46:48;;;;;;;4.53;3.33;;;23.00;49.70;;;;;;4978173;28;20413;-80
2021/05/26 13:49:42;;;;;;;5.87;4.27;;;23.00;49.70;;;;;;4977530;28;20221;-80
2021/05/26 13:52:10;;;;;;;6.60;4.20;;;23.00;49.60;;;;;;4976866;28;21051;-80